Time;durP1;ratioP1;P1;durP2;ratioP2;P2;SDS_P1;SDS_P2;PMS_P1;PMS_P2;Temp;Humidity;BMP_temperature;BMP_pressure;BME280_temperature;BME280_humidity;BME280_pressure;Samples;Min_cycle;Max_cycle;Signal;HPM_P1;HPM_P2
2021/05/12 00:00:16;;;;;;;25.37;21.07;;;13.50;99.90;;;;;;5014601;28;20531;-76
2021/05/12 00:02:44;;;;;;;29.07;21.83;;;13.50;99.90;;;;;;5013176;28;20798;-76
2021/05/12 00:05:11;;;;;;;25.20;22.43;;;13.50;99.90;;;;;;5013215;28;20437;-76
2021/05/12 00:07:42;;;;;;;27.60;23.30;;;13.50;99.90;;;;;;5013199;28;20990;-76
2021/05/12 00:10:10;;;;;;;29.10;23.70;;;13.50;99.90;;;;;;5013210;28;20453;-76
2021/05/12 00:12:39;;;;;;;28.93;23.20;;;13.50;99.90;;;;;;4997167;28;20821;-76
2021/05/12 00:15:09;;;;;;;26.97;22.37;;;13.50;99.90;;;;;;5013275;28;20439;-76
2021/05/12 00:17:39;;;;;;;29.63;23.57;;;13.40;99.90;;;;;;4997651;28;20519;-77
2021/05/12 00:20:07;;;;;;;28.17;22.60;;;13.40;99.90;;;;;;5005539;28;20462;-77
2021/05/12 00:25:00;;;;;;;30.63;25.10;;;13.50;99.90;;;;;;5014571;28;20468;-77
2021/05/12 00:27:28;;;;;;;28.43;22.93;;;13.40;99.90;;;;;;5012372;28;20971;-76
2021/05/12 00:29:54;;;;;;;29.73;23.97;;;13.40;99.90;;;;;;4996690;28;20536;-77
2021/05/12 00:32:20;;;;;;;32.50;24.40;;;13.40;99.90;;;;;;5014295;28;20654;-77
2021/05/12 00:35:04;;;;;;;30.63;24.73;;;13.40;99.90;;;;;;5012896;28;20531;-78
2021/05/12 00:37:33;;;;;;;33.37;25.53;;;13.40;99.90;;;;;;4995913;28;20441;-76
2021/05/12 00:39:59;;;;;;;33.87;23.87;;;13.30;99.90;;;;;;5012980;28;20445;-77
2021/05/12 00:42:29;;;;;;;30.47;24.30;;;13.30;99.90;;;;;;5012457;28;20457;-76
2021/05/12 00:44:57;;;;;;;32.27;25.43;;;13.30;99.90;;;;;;5012116;28;20444;-76
2021/05/12 00:47:27;;;;;;;32.97;25.23;;;13.20;99.90;;;;;;5012836;28;20847;-76
2021/05/12 00:49:56;;;;;;;34.33;25.87;;;13.20;99.90;;;;;;4995797;28;20812;-76
2021/05/12 00:52:24;;;;;;;33.60;22.90;;;13.20;99.90;;;;;;5012424;28;20434;-76
2021/05/12 00:54:52;;;;;;;31.03;25.57;;;13.10;99.90;;;;;;5012265;28;20442;-76
2021/05/12 00:57:23;;;;;;;30.77;26.00;;;13.10;99.90;;;;;;5012515;28;20922;-76
2021/05/12 00:59:53;;;;;;;29.37;25.40;;;13.10;99.90;;;;;;5013384;28;20479;-76
2021/05/12 01:02:20;;;;;;;29.30;24.60;;;13.00;99.90;;;;;;4979372;28;20462;-76
2021/05/12 01:04:46;;;;;;;34.77;24.43;;;13.00;99.90;;;;;;4996069;28;20976;-76
2021/05/12 01:07:13;;;;;;;32.50;26.90;;;13.00;99.90;;;;;;5012227;28;20499;-76
2021/05/12 01:09:41;;;;;;;31.97;25.53;;;12.90;99.90;;;;;;5012548;28;20450;-76
2021/05/12 01:12:07;;;;;;;31.87;25.40;;;12.90;99.90;;;;;;4995982;28;20440;-76
2021/05/12 01:14:33;;;;;;;28.83;24.10;;;12.90;99.90;;;;;;5013567;28;20431;-76
2021/05/12 01:16:59;;;;;;;32.40;26.03;;;12.90;99.90;;;;;;5011821;28;20471;-76
2021/05/12 01:19:28;;;;;;;31.00;25.73;;;12.90;99.90;;;;;;5012086;28;20449;-76
2021/05/12 01:21:55;;;;;;;32.00;25.30;;;12.90;99.90;;;;;;5013381;28;20445;-76
2021/05/12 01:24:21;;;;;;;28.53;24.70;;;12.90;99.90;;;;;;4993787;28;20473;-76
2021/05/12 01:26:50;;;;;;;31.90;26.40;;;12.90;99.90;;;;;;5005049;28;20464;-76
2021/05/12 01:29:16;;;;;;;31.90;26.37;;;12.90;99.90;;;;;;5011491;28;20446;-76
2021/05/12 01:31:45;;;;;;;31.03;25.63;;;12.80;99.90;;;;;;5012790;28;20424;-77
2021/05/12 01:34:15;;;;;;;35.73;27.07;;;12.80;99.90;;;;;;5013031;28;20775;-76
2021/05/12 01:36:42;;;;;;;37.20;27.07;;;12.80;99.90;;;;;;4979317;28;20803;-76
2021/05/12 01:39:13;;;;;;;30.97;25.37;;;12.80;99.90;;;;;;4995786;28;20450;-76
2021/05/12 01:41:39;;;;;;;34.53;27.27;;;12.80;99.90;;;;;;5011482;28;20435;-76
2021/05/12 01:44:10;;;;;;;39.13;27.97;;;12.80;99.90;;;;;;5011257;28;20464;-76
2021/05/12 01:46:39;;;;;;;31.83;26.23;;;12.80;99.90;;;;;;4975920;28;20476;-76
2021/05/12 01:49:06;;;;;;;28.23;24.60;;;12.70;99.90;;;;;;4985059;28;20451;-76
2021/05/12 01:51:34;;;;;;;32.07;27.77;;;12.70;99.90;;;;;;4994433;28;20439;-76
2021/05/12 01:54:00;;;;;;;31.57;27.20;;;12.70;99.90;;;;;;5011420;28;20537;-77
2021/05/12 01:56:27;;;;;;;37.40;26.70;;;12.70;99.90;;;;;;5010631;28;20467;-76
2021/05/12 01:58:53;;;;;;;33.67;25.27;;;12.80;99.90;;;;;;5012411;28;20457;-76
2021/05/12 02:01:19;;;;;;;30.77;25.67;;;12.80;99.90;;;;;;5002615;28;20436;-76
2021/05/12 02:03:46;;;;;;;36.17;26.20;;;12.70;99.90;;;;;;5006664;28;20434;-76
2021/05/12 02:06:13;;;;;;;30.63;25.07;;;12.70;99.90;;;;;;4994812;28;20433;-76
2021/05/12 02:08:40;;;;;;;35.07;25.83;;;12.70;99.90;;;;;;5010945;28;20460;-77
2021/05/12 02:11:07;;;;;;;37.40;25.90;;;12.70;99.90;;;;;;4994771;28;20492;-77
2021/05/12 02:13:34;;;;;;;32.27;25.97;;;12.70;99.90;;;;;;5012684;28;20425;-77
2021/05/12 02:16:06;;;;;;;29.17;25.33;;;12.70;99.90;;;;;;4994786;28;20424;-76
2021/05/12 02:18:32;;;;;;;29.97;23.43;;;12.60;99.90;;;;;;5011306;28;20453;-76
2021/05/12 02:20:59;;;;;;;31.63;25.37;;;12.70;99.90;;;;;;4999044;28;20506;-76
2021/05/12 02:23:28;;;;;;;35.60;25.80;;;12.70;99.90;;;;;;4975563;28;20779;-76
2021/05/12 02:25:55;;;;;;;30.70;23.40;;;12.60;99.90;;;;;;5009813;28;20495;-73
2021/05/12 02:28:24;;;;;;;35.00;26.63;;;12.60;99.90;;;;;;4983532;28;20573;-73
2021/05/12 02:30:53;;;;;;;29.20;24.30;;;12.70;99.90;;;;;;5031001;23;20896;-85
2021/05/12 02:33:21;;;;;;;30.57;23.70;;;12.70;99.90;;;;;;5012330;28;20429;-84
2021/05/12 02:35:47;;;;;;;29.87;23.60;;;12.60;99.90;;;;;;5027344;28;20887;-85
2021/05/12 02:38:16;;;;;;;29.57;23.93;;;12.70;99.90;;;;;;5024781;28;20878;-85
2021/05/12 02:40:42;;;;;;;26.33;22.60;;;12.70;99.90;;;;;;5006651;28;20515;-85
2021/05/12 02:43:10;;;;;;;33.17;24.50;;;12.60;99.90;;;;;;5033454;28;20890;-84
2021/05/12 02:45:39;;;;;;;30.50;22.93;;;12.60;99.90;;;;;;5033685;28;20420;-85
2021/05/12 02:48:07;;;;;;;31.27;24.47;;;12.60;99.90;;;;;;5033715;28;20462;-84
2021/05/12 02:50:36;;;;;;;32.97;24.60;;;12.60;99.90;;;;;;5028326;28;20460;-85
2021/05/12 02:53:04;;;;;;;32.73;24.50;;;12.60;99.90;;;;;;5020334;28;20503;-84
2021/05/12 02:55:34;;;;;;;30.83;23.43;;;12.60;99.90;;;;;;5001383;28;20426;-85
2021/05/12 02:58:05;;;;;;;35.63;24.70;;;12.60;99.90;;;;;;5020520;28;20433;-85
2021/05/12 03:00:35;;;;;;;31.23;24.83;;;12.60;99.90;;;;;;5037113;28;20493;-85
2021/05/12 03:03:01;;;;;;;30.40;25.07;;;12.60;99.90;;;;;;5037321;28;20431;-85
2021/05/12 03:05:29;;;;;;;27.63;23.53;;;12.60;99.90;;;;;;5020164;28;20427;-85
2021/05/12 03:07:55;;;;;;;39.37;23.63;;;12.60;99.90;;;;;;5019764;28;20461;-84
2021/05/12 03:10:25;;;;;;;29.23;24.57;;;12.60;99.90;;;;;;5013330;28;20446;-85
2021/05/12 03:12:52;;;;;;;32.27;24.47;;;12.60;99.90;;;;;;5019709;28;20993;-85
2021/05/12 03:15:21;;;;;;;27.50;22.53;;;12.60;99.90;;;;;;5036833;28;20741;-85
2021/05/12 03:17:49;;;;;;;29.30;23.30;;;12.60;99.90;;;;;;5019627;28;20539;-85
2021/05/12 03:20:20;;;;;;;30.43;24.40;;;12.60;99.90;;;;;;5019788;28;20483;-85
2021/05/12 03:22:46;;;;;;;33.27;24.93;;;12.60;99.90;;;;;;5034544;28;20428;-85
2021/05/12 03:25:14;;;;;;;32.20;25.17;;;12.60;99.90;;;;;;5003565;28;20446;-85
2021/05/12 03:27:44;;;;;;;33.43;25.60;;;12.70;99.90;;;;;;5036770;28;20477;-85
2021/05/12 03:30:17;;;;;;;27.80;23.57;;;12.70;99.90;;;;;;5036748;28;20473;-85
2021/05/12 03:32:43;;;;;;;29.70;23.03;;;12.70;99.90;;;;;;5036761;28;20775;-84
2021/05/12 03:35:12;;;;;;;31.47;24.07;;;12.70;99.90;;;;;;5019467;28;20431;-84
2021/05/12 03:37:38;;;;;;;34.37;24.57;;;12.70;99.90;;;;;;5036570;28;20821;-85
2021/05/12 03:40:08;;;;;;;34.47;25.83;;;12.70;99.90;;;;;;5036718;28;20510;-85
2021/05/12 03:42:39;;;;;;;27.30;23.73;;;12.70;99.90;;;;;;5036668;28;20481;-85
2021/05/12 03:45:08;;;;;;;33.07;25.17;;;12.70;99.90;;;;;;5027123;28;20463;-85
2021/05/12 03:47:34;;;;;;;32.57;24.37;;;12.70;99.90;;;;;;5036315;28;20765;-85
2021/05/12 03:50:00;;;;;;;29.63;22.93;;;12.60;99.90;;;;;;5030797;28;20520;-84
2021/05/12 03:52:28;;;;;;;29.13;23.10;;;12.60;99.90;;;;;;5019118;28;20417;-84
2021/05/12 03:54:56;;;;;;;37.13;25.10;;;12.60;99.90;;;;;;5036506;28;20442;-85
2021/05/12 03:57:23;;;;;;;30.73;23.20;;;12.60;99.90;;;;;;5019263;28;20424;-85
2021/05/12 03:59:51;;;;;;;30.40;23.23;;;12.70;99.90;;;;;;5036246;28;20463;-85
2021/05/12 04:02:17;;;;;;;32.80;25.03;;;12.60;99.90;;;;;;5017980;28;20459;-85
2021/05/12 04:04:43;;;;;;;31.50;23.60;;;12.60;99.90;;;;;;5035843;28;20517;-84
2021/05/12 04:07:09;;;;;;;30.53;22.70;;;12.60;99.90;;;;;;5035572;28;20561;-85
2021/05/12 04:09:35;;;;;;;31.90;23.67;;;12.60;99.90;;;;;;5019029;28;20424;-85
2021/05/12 04:12:01;;;;;;;27.73;22.50;;;12.60;99.90;;;;;;5036035;28;20416;-85
2021/05/12 04:14:27;;;;;;;30.57;22.40;;;12.60;99.90;;;;;;4995042;28;20581;-85
2021/05/12 04:16:55;;;;;;;27.57;21.17;;;12.60;99.90;;;;;;5016367;28;20441;-84
2021/05/12 04:19:21;;;;;;;27.50;21.33;;;12.60;99.90;;;;;;5013256;28;20442;-85
2021/05/12 04:21:47;;;;;;;37.30;23.97;;;12.60;99.90;;;;;;5018342;28;20423;-85
2021/05/12 04:24:18;;;;;;;26.63;23.67;;;12.60;99.90;;;;;;5018268;28;20435;-85
2021/05/12 04:26:46;;;;;;;30.77;21.00;;;12.60;99.90;;;;;;4999213;28;20454;-85
2021/05/12 04:29:17;;;;;;;28.10;22.17;;;12.60;99.90;;;;;;5022761;28;20441;-85
2021/05/12 04:31:45;;;;;;;27.70;21.73;;;12.70;99.90;;;;;;5036016;28;20506;-85
2021/05/12 04:34:13;;;;;;;25.77;21.63;;;12.70;99.90;;;;;;5035452;28;20554;-85
2021/05/12 04:36:39;;;;;;;28.60;21.83;;;12.70;99.90;;;;;;5035853;28;20436;-85
2021/05/12 04:39:08;;;;;;;29.97;21.73;;;12.70;99.90;;;;;;5035290;28;20434;-85
2021/05/12 04:41:36;;;;;;;26.13;21.53;;;12.80;99.90;;;;;;5035406;28;20441;-85
2021/05/12 04:44:08;;;;;;;30.40;20.67;;;12.80;99.90;;;;;;5018179;28;20431;-85
2021/05/12 04:46:37;;;;;;;32.47;20.53;;;12.90;99.90;;;;;;5035273;28;20435;-85
2021/05/12 04:49:06;;;;;;;22.40;20.03;;;12.90;99.90;;;;;;5035193;28;20441;-85
2021/05/12 04:51:35;;;;;;;24.90;19.77;;;13.00;99.90;;;;;;5009236;28;20765;-84
2021/05/12 04:54:05;;;;;;;31.03;19.60;;;13.00;99.90;;;;;;4998397;28;20781;-85
2021/05/12 04:56:32;;;;;;;24.73;19.50;;;13.00;99.90;;;;;;5006876;28;20426;-84
2021/05/12 04:58:58;;;;;;;27.93;20.03;;;13.10;99.90;;;;;;5035270;28;20440;-84
2021/05/12 05:01:25;;;;;;;22.97;19.60;;;13.10;99.90;;;;;;5017636;28;20497;-84
2021/05/12 05:03:50;;;;;;;28.50;20.10;;;13.20;99.90;;;;;;5035448;28;20428;-84
2021/05/12 05:06:19;;;;;;;28.00;20.60;;;13.20;99.90;;;;;;5035011;28;20459;-84
2021/05/12 05:08:46;;;;;;;25.57;20.63;;;13.30;99.90;;;;;;5034843;28;20879;-85
2021/05/12 05:11:11;;;;;;;28.83;21.73;;;13.30;99.90;;;;;;5017541;28;20519;-85
2021/05/12 05:13:38;;;;;;;26.73;20.70;;;13.30;99.90;;;;;;5000812;28;20527;-85
2021/05/12 05:16:09;;;;;;;27.47;19.87;;;13.40;99.90;;;;;;5035251;28;20495;-85
2021/05/12 05:18:38;;;;;;;29.47;19.00;;;13.40;99.90;;;;;;5034014;28;20431;-85
2021/05/12 05:21:06;;;;;;;23.27;19.23;;;13.40;99.90;;;;;;4997345;28;20438;-85
2021/05/12 05:23:35;;;;;;;23.10;18.00;;;13.40;99.90;;;;;;5031114;28;20947;-85
2021/05/12 05:26:03;;;;;;;19.03;16.50;;;13.40;99.90;;;;;;5034319;28;20457;-85
2021/05/12 05:28:30;;;;;;;20.00;16.23;;;13.50;99.90;;;;;;5034313;28;20492;-85
2021/05/12 05:30:58;;;;;;;21.50;15.23;;;13.50;99.90;;;;;;5016644;28;20468;-84
2021/05/12 05:33:43;;;;;;;22.10;16.07;;;13.50;99.90;;;;;;5033165;28;21136;-86
2021/05/12 05:36:28;;;;;;;20.87;15.80;;;13.60;99.90;;;;;;5032429;28;20428;-83
2021/05/12 05:39:13;;;;;;;20.77;15.80;;;13.60;99.90;;;;;;5001365;28;20444;-86
2021/05/12 05:41:58;;;;;;;19.50;15.60;;;13.60;99.90;;;;;;5016212;28;20933;-85
2021/05/12 05:44:45;;;;;;;19.90;16.53;;;13.70;99.90;;;;;;5016229;28;20445;-85
2021/05/12 05:47:32;;;;;;;23.20;16.30;;;13.70;99.90;;;;;;5011853;28;20455;-84
2021/05/12 05:50:17;;;;;;;21.47;16.43;;;13.80;99.90;;;;;;5019760;28;20449;-84
2021/05/12 05:53:02;;;;;;;23.90;17.23;;;13.80;99.90;;;;;;4996501;28;20455;-87
2021/05/12 05:55:47;;;;;;;24.43;16.10;;;13.80;99.90;;;;;;5006928;28;21168;-86
2021/05/12 05:58:31;;;;;;;21.40;16.60;;;13.80;99.90;;;;;;5032494;28;20434;-85
2021/05/12 06:01:15;;;;;;;19.43;14.13;;;13.90;99.90;;;;;;5032393;28;20424;-84
2021/05/12 06:03:44;;;;;;;23.17;14.63;;;13.90;99.90;;;;;;5032427;28;20440;-84
2021/05/12 06:06:31;;;;;;;21.00;15.90;;;14.00;99.90;;;;;;5032328;28;20423;-85
2021/05/12 06:09:15;;;;;;;19.80;14.07;;;14.00;99.90;;;;;;4996054;28;20441;-84
2021/05/12 06:12:00;;;;;;;18.47;14.07;;;14.00;99.90;;;;;;4994472;28;20516;-83
2021/05/12 06:14:44;;;;;;;19.37;15.50;;;14.00;99.90;;;;;;5032234;28;20415;-84
2021/05/12 06:17:32;;;;;;;18.83;15.27;;;14.00;99.90;;;;;;5032481;28;20913;-85
2021/05/12 06:20:17;;;;;;;15.17;12.10;;;13.90;99.90;;;;;;5032357;28;20897;-86
2021/05/12 06:23:07;;;;;;;16.20;13.17;;;13.90;99.90;;;;;;5001138;28;20477;-86
2021/05/12 06:25:52;;;;;;;18.70;15.07;;;13.90;99.90;;;;;;5031294;28;20452;-86
2021/05/12 06:28:44;;;;;;;16.30;12.90;;;13.90;99.90;;;;;;5001484;28;20469;-85
2021/05/12 06:31:29;;;;;;;15.93;12.70;;;14.00;99.90;;;;;;5015406;28;20529;-86
2021/05/12 06:34:16;;;;;;;13.93;12.10;;;14.00;99.90;;;;;;5012701;28;20428;-88
2021/05/12 06:37:02;;;;;;;17.53;12.20;;;14.00;99.90;;;;;;5033128;28;20832;-92
2021/05/12 06:39:46;;;;;;;16.57;12.47;;;13.90;99.90;;;;;;5015871;28;20445;-86
2021/05/12 06:42:12;;;;;;;15.27;12.93;;;13.90;99.90;;;;;;5015944;28;20444;-88
2021/05/12 06:44:43;;;;;;;16.07;12.57;;;13.90;99.90;;;;;;5016191;28;20441;-88
2021/05/12 06:47:09;;;;;;;14.37;12.17;;;13.90;99.90;;;;;;4995572;28;20468;-89
2021/05/12 06:49:35;;;;;;;18.47;12.80;;;14.00;99.90;;;;;;4995674;28;20449;-86
2021/05/12 06:52:01;;;;;;;19.83;11.13;;;14.10;99.90;;;;;;4991690;28;20460;-88
2021/05/12 06:54:27;;;;;;;15.97;11.03;;;14.20;99.90;;;;;;4979637;28;20478;-90
2021/05/12 06:56:53;;;;;;;14.87;11.63;;;14.30;99.90;;;;;;4992872;28;20473;-93
2021/05/12 06:59:19;;;;;;;18.07;11.93;;;14.40;99.90;;;;;;5013544;28;20972;-91
2021/05/12 07:01:45;;;;;;;12.80;11.10;;;14.30;99.90;;;;;;5014794;28;20946;-92
2021/05/12 07:04:13;;;;;;;16.03;12.83;;;14.30;99.90;;;;;;5001874;28;20490;-88
2021/05/12 07:06:39;;;;;;;18.93;11.97;;;14.40;99.90;;;;;;5033496;28;20432;-88
2021/05/12 07:09:05;;;;;;;15.87;11.17;;;14.40;99.90;;;;;;4999785;28;20439;-84
2021/05/12 07:11:31;;;;;;;13.37;10.60;;;14.40;99.90;;;;;;5016100;28;20435;-85
2021/05/12 07:13:57;;;;;;;14.70;11.77;;;14.50;99.90;;;;;;4984320;28;20767;-90
2021/05/12 07:16:24;;;;;;;18.10;11.77;;;14.60;99.90;;;;;;4984467;28;20434;-87
2021/05/12 07:18:50;;;;;;;16.07;11.93;;;14.60;99.90;;;;;;4983164;28;20841;-86
2021/05/12 07:21:18;;;;;;;17.53;12.43;;;14.60;99.90;;;;;;4980407;28;20444;-88
2021/05/12 07:23:46;;;;;;;13.70;10.83;;;14.70;99.90;;;;;;4997969;28;20922;-88
2021/05/12 07:26:12;;;;;;;15.07;11.37;;;14.70;99.90;;;;;;4979857;28;20525;-88
2021/05/12 07:28:39;;;;;;;16.27;11.97;;;14.70;99.90;;;;;;5014553;28;20481;-88
2021/05/12 07:31:07;;;;;;;13.60;11.97;;;14.60;99.90;;;;;;4983009;28;20469;-86
2021/05/12 07:33:35;;;;;;;16.07;12.17;;;14.70;99.90;;;;;;4999565;28;20433;-85
2021/05/12 07:36:02;;;;;;;13.63;12.03;;;14.80;99.90;;;;;;4999287;28;20442;-89
2021/05/12 07:38:28;;;;;;;19.30;12.47;;;14.90;99.90;;;;;;4980117;28;20430;-87
2021/05/12 07:40:55;;;;;;;16.57;11.90;;;15.10;99.90;;;;;;4970907;28;20460;-87
2021/05/12 07:43:21;;;;;;;17.50;12.20;;;15.20;99.90;;;;;;5000590;28;20442;-89
2021/05/12 07:45:47;;;;;;;17.43;11.47;;;15.20;99.90;;;;;;5016878;28;20478;-90
2021/05/12 07:48:13;;;;;;;16.27;12.23;;;15.10;99.90;;;;;;4999820;28;20478;-86
2021/05/12 07:50:40;;;;;;;14.47;11.30;;;15.30;99.90;;;;;;4983233;28;20451;-84
2021/05/12 07:53:09;;;;;;;16.10;11.93;;;15.40;99.90;;;;;;4987514;28;20450;-83
2021/05/12 07:55:39;;;;;;;18.40;11.20;;;15.40;99.90;;;;;;4988476;28;20522;-87
2021/05/12 07:58:08;;;;;;;15.70;12.13;;;15.50;99.90;;;;;;4999779;28;20435;-86
2021/05/12 08:00:39;;;;;;;14.23;10.97;;;15.50;99.90;;;;;;4994481;28;20454;-88
2021/05/12 08:03:05;;;;;;;16.53;13.00;;;15.50;99.90;;;;;;4984156;28;20435;-90
2021/05/12 08:05:32;;;;;;;15.20;11.93;;;15.60;99.90;;;;;;4968511;28;20495;-91
2021/05/12 08:07:59;;;;;;;15.20;11.90;;;15.60;99.90;;;;;;4984456;28;20569;-91
2021/05/12 08:10:29;;;;;;;14.47;11.30;;;15.60;99.90;;;;;;4984920;28;20502;-95
2021/05/12 08:12:55;;;;;;;16.00;11.90;;;15.70;99.90;;;;;;4985037;28;20435;-93
2021/05/12 08:15:24;;;;;;;14.87;13.37;;;15.90;99.90;;;;;;5004172;28;20427;-94
2021/05/12 08:17:52;;;;;;;13.67;12.37;;;16.00;99.90;;;;;;5004721;28;20423;-90
2021/05/12 08:20:18;;;;;;;14.03;12.53;;;16.00;99.90;;;;;;4983446;28;20483;-88
2021/05/12 08:22:44;;;;;;;15.43;13.83;;;16.00;99.90;;;;;;5003564;28;20901;-91
2021/05/12 08:25:13;;;;;;;15.37;13.97;;;16.10;99.90;;;;;;4991583;28;20435;-88
2021/05/12 08:27:39;;;;;;;14.33;12.67;;;16.20;99.90;;;;;;4998095;28;20476;-87
2021/05/12 08:30:10;;;;;;;18.50;13.60;;;16.30;99.90;;;;;;5011917;28;20472;-86
2021/05/12 08:32:37;;;;;;;16.20;14.43;;;16.40;99.90;;;;;;4986546;28;20454;-89
2021/05/12 08:35:03;;;;;;;13.93;12.50;;;16.40;99.90;;;;;;4992568;28;20443;-91
2021/05/12 08:37:29;;;;;;;15.73;14.00;;;16.60;99.90;;;;;;5030365;28;20442;-92
2021/05/12 08:39:55;;;;;;;17.53;13.30;;;16.70;99.90;;;;;;5001184;28;20805;-94
2021/05/12 08:42:22;;;;;;;13.80;12.60;;;16.80;99.90;;;;;;5000701;28;20424;-93
2021/05/12 08:44:50;;;;;;;14.60;13.00;;;16.80;99.90;;;;;;5008635;28;20431;-86
2021/05/12 08:47:21;;;;;;;16.97;13.47;;;16.80;99.90;;;;;;4982367;28;20467;-87
2021/05/12 08:49:48;;;;;;;14.37;11.77;;;16.80;99.90;;;;;;4998894;28;20429;-93
2021/05/12 08:52:14;;;;;;;14.53;13.00;;;16.80;99.90;;;;;;5000545;28;20469;-91
2021/05/12 08:54:43;;;;;;;15.20;12.73;;;16.90;99.90;;;;;;5000357;28;20431;-92
2021/05/12 08:57:12;;;;;;;13.70;12.40;;;17.10;99.90;;;;;;4984324;28;20467;-89
2021/05/12 08:59:38;;;;;;;14.60;12.87;;;17.10;99.90;;;;;;4968765;28;20443;-95
2021/05/12 09:02:07;;;;;;;13.10;11.90;;;17.10;99.90;;;;;;4968137;28;20428;-92
2021/05/12 09:04:33;;;;;;;12.77;11.67;;;17.20;99.90;;;;;;5014957;28;20432;-94
2021/05/12 09:07:04;;;;;;;14.47;12.90;;;17.40;99.90;;;;;;5017913;28;20612;-83
2021/05/12 09:09:32;;;;;;;13.53;12.23;;;17.50;99.90;;;;;;5001878;28;20447;-87
2021/05/12 09:11:58;;;;;;;12.87;11.60;;;17.50;99.90;;;;;;4985754;28;20530;-94
2021/05/12 09:14:29;;;;;;;12.47;11.37;;;17.60;99.90;;;;;;5036756;28;20517;-93
2021/05/12 09:16:55;;;;;;;12.63;11.40;;;17.80;99.90;;;;;;5002988;28;20594;-91
2021/05/12 09:19:24;;;;;;;12.07;10.80;;;17.70;99.90;;;;;;5002851;28;20495;-86
2021/05/12 09:21:57;;;;;;;14.17;10.30;;;17.70;99.90;;;;;;4984770;28;20799;-88
2021/05/12 09:24:33;;;;;;;10.47;9.37;;;17.50;99.90;;;;;;4985848;28;20436;-91
2021/05/12 09:27:02;;;;;;;15.17;10.63;;;17.50;99.90;;;;;;4985071;28;20956;-92
2021/05/12 09:29:37;;;;;;;10.83;9.70;;;17.60;99.90;;;;;;4982846;28;20476;-91
2021/05/12 09:32:13;;;;;;;13.40;11.43;;;17.70;99.90;;;;;;4985772;28;20428;-93
2021/05/12 09:35:03;;;;;;;11.63;10.20;;;18.00;99.90;;;;;;5002501;28;20436;-91
2021/05/12 09:37:40;;;;;;;14.10;12.83;;;18.30;99.90;;;;;;4985859;28;20487;-88
2021/05/12 09:40:11;;;;;;;12.47;11.20;;;18.40;99.90;;;;;;4986474;28;20432;-90
2021/05/12 09:42:41;;;;;;;11.97;10.77;;;18.70;99.90;;;;;;4986103;28;20467;-88
2021/05/12 09:45:14;;;;;;;12.67;11.40;;;18.70;99.90;;;;;;4981949;28;20437;-86
2021/05/12 09:47:42;;;;;;;11.57;10.50;;;18.50;99.90;;;;;;4981515;28;20468;-86
2021/05/12 09:50:11;;;;;;;10.50;9.50;;;18.40;99.90;;;;;;4977393;28;20455;-85
2021/05/12 09:52:37;;;;;;;10.33;9.20;;;18.20;99.00;;;;;;4973790;28;20475;-85
2021/05/12 09:55:06;;;;;;;11.43;10.40;;;18.10;99.70;;;;;;5000514;28;20904;-84
2021/05/12 09:57:32;;;;;;;10.97;9.90;;;18.30;99.30;;;;;;5017037;28;20444;-85
2021/05/12 10:00:00;;;;;;;15.40;9.13;;;18.50;98.10;;;;;;4984047;28;20556;-84
2021/05/12 10:02:27;;;;;;;11.17;10.00;;;18.70;99.00;;;;;;4984076;28;20457;-88
2021/05/12 10:04:59;;;;;;;10.17;9.17;;;18.80;98.80;;;;;;5000859;28;20432;-84
2021/05/12 10:07:26;;;;;;;11.97;8.03;;;18.60;97.20;;;;;;4984024;28;20467;-84
2021/05/12 10:09:56;;;;;;;11.00;9.20;;;18.50;97.40;;;;;;5000484;28;20424;-87
2021/05/12 10:12:25;;;;;;;11.27;9.17;;;18.40;97.40;;;;;;5000335;28;21050;-88
2021/05/12 10:14:57;;;;;;;9.70;8.83;;;18.30;98.70;;;;;;4984491;28;20437;-87
2021/05/12 10:17:27;;;;;;;10.93;9.93;;;18.60;97.50;;;;;;4984448;28;20419;-88
2021/05/12 10:19:55;;;;;;;11.00;10.03;;;18.80;95.80;;;;;;4990042;28;20479;-90
2021/05/12 10:22:23;;;;;;;11.40;10.30;;;18.70;96.80;;;;;;4981310;28;20428;-86
2021/05/12 10:24:52;;;;;;;10.83;9.70;;;19.10;99.00;;;;;;4995216;28;20529;-84
2021/05/12 10:27:25;;;;;;;10.77;9.00;;;19.40;95.20;;;;;;4987126;28;20474;-88
2021/05/12 10:29:53;;;;;;;9.80;8.87;;;19.60;95.50;;;;;;4967959;28;20477;-86
2021/05/12 10:32:30;;;;;;;11.90;8.60;;;19.40;95.80;;;;;;4968937;28;20456;-87
2021/05/12 10:35:04;;;;;;;14.70;11.27;;;19.30;97.50;;;;;;4993363;28;20534;-90
2021/05/12 10:37:34;;;;;;;10.50;9.40;;;19.60;96.30;;;;;;4969431;28;20508;-88
2021/05/12 10:40:05;;;;;;;9.87;8.87;;;19.60;95.90;;;;;;4974503;28;20437;-89
2021/05/12 10:45:40;;;;;;;10.37;9.40;;;20.50;91.80;;;;;;4974700;28;20413;-84
2021/05/12 10:48:06;;;;;;;9.07;7.33;;;20.80;90.60;;;;;;4971917;28;20570;-84
2021/05/12 10:50:44;;;;;;;8.97;8.13;;;20.80;84.20;;;;;;4961686;28;20972;-84
2021/05/12 10:53:23;;;;;;;8.70;7.80;;;21.00;83.50;;;;;;4951977;28;20496;-88
2021/05/12 10:55:58;;;;;;;9.27;8.20;;;21.20;90.30;;;;;;4958916;28;20406;-87
2021/05/12 10:58:26;;;;;;;9.40;8.50;;;21.30;90.20;;;;;;4975047;28;20438;-84
2021/05/12 11:01:00;;;;;;;8.97;8.07;;;21.40;85.70;;;;;;4945919;28;20442;-86
2021/05/12 11:03:52;;;;;;;8.30;7.47;;;21.10;86.10;;;;;;4988545;28;20495;-89
2021/05/12 11:06:44;;;;;;;7.23;6.73;;;20.90;83.50;;;;;;4962629;28;20432;-87
2021/05/12 11:09:17;;;;;;;7.27;6.73;;;20.70;83.10;;;;;;4978749;28;20499;-89
2021/05/12 11:11:45;;;;;;;7.23;6.73;;;20.90;85.70;;;;;;4994062;28;20911;-87
2021/05/12 11:14:27;;;;;;;8.67;7.80;;;20.90;84.70;;;;;;4997276;28;20509;-88
2021/05/12 11:17:19;;;;;;;8.57;7.73;;;20.80;81.90;;;;;;4997193;28;20437;-87
2021/05/12 11:19:55;;;;;;;9.13;8.33;;;21.10;83.80;;;;;;4997932;28;20427;-88
2021/05/12 11:41:42;;;;;;;9.70;7.20;;;20.50;83.40;;;;;;5035253;23;20501;-74
2021/05/12 11:44:11;;;;;;;8.50;7.50;;;20.80;82.40;;;;;;5034242;28;20435;-74
2021/05/12 11:46:41;;;;;;;14.13;8.20;;;21.20;85.30;;;;;;5000974;28;20430;-74
2021/05/12 11:49:10;;;;;;;7.57;7.07;;;21.70;79.10;;;;;;4984690;28;20455;-75
2021/05/12 11:51:42;;;;;;;7.87;7.27;;;22.10;76.50;;;;;;5006879;28;20479;-74
2021/05/12 11:54:22;;;;;;;7.40;6.73;;;22.40;73.10;;;;;;5026740;28;20474;-74
2021/05/12 11:56:59;;;;;;;9.80;7.00;;;22.80;73.30;;;;;;5016923;28;20438;-74
2021/05/12 11:59:38;;;;;;;7.23;6.73;;;23.10;69.60;;;;;;5001300;28;20453;-74
2021/05/12 12:02:10;;;;;;;7.33;6.93;;;23.30;61.10;;;;;;5034583;28;20838;-75
2021/05/12 12:04:46;;;;;;;8.20;7.50;;;23.20;63.50;;;;;;5016747;28;20434;-74
2021/05/12 12:07:15;;;;;;;8.97;8.10;;;23.30;63.50;;;;;;5016998;28;20453;-74
2021/05/12 12:09:41;;;;;;;9.00;8.20;;;23.50;67.30;;;;;;5000259;28;20486;-74
2021/05/12 12:12:07;;;;;;;7.70;6.90;;;23.50;70.10;;;;;;5034591;28;20434;-74
2021/05/12 12:14:36;;;;;;;7.77;7.00;;;23.60;66.90;;;;;;5033979;28;20461;-75
2021/05/12 12:17:13;;;;;;;8.33;7.63;;;23.50;67.90;;;;;;5034611;28;20431;-75
2021/05/12 12:19:39;;;;;;;8.80;8.10;;;23.50;63.40;;;;;;5016561;28;20456;-74
2021/05/12 12:22:05;;;;;;;8.73;7.83;;;23.50;61.90;;;;;;5026942;28;20466;-74
2021/05/12 12:24:34;;;;;;;7.87;7.23;;;23.30;61.00;;;;;;5032790;28;20432;-74
2021/05/12 12:27:03;;;;;;;6.97;6.43;;;23.20;61.40;;;;;;5016199;28;20507;-74
2021/05/12 12:29:31;;;;;;;7.87;7.27;;;23.10;65.60;;;;;;5033917;28;20807;-74
2021/05/12 12:32:08;;;;;;;8.80;8.00;;;23.10;64.90;;;;;;5000400;28;20519;-75
2021/05/12 12:34:36;;;;;;;8.57;7.87;;;23.10;61.90;;;;;;5033766;28;20437;-74
2021/05/12 12:37:17;;;;;;;7.87;7.27;;;23.10;61.40;;;;;;5016888;28;20428;-74
2021/05/12 12:40:10;;;;;;;7.57;6.97;;;22.70;59.80;;;;;;5033658;28;20458;-74
2021/05/12 12:42:43;;;;;;;8.73;7.90;;;22.20;61.10;;;;;;5015993;28;20974;-74
2021/05/12 12:45:24;;;;;;;7.87;7.37;;;22.40;59.50;;;;;;4999580;28;20454;-74
2021/05/12 12:47:58;;;;;;;8.97;8.40;;;22.50;59.40;;;;;;5015681;28;20826;-74
2021/05/12 12:50:27;;;;;;;8.10;7.50;;;22.70;60.50;;;;;;4999142;28;21036;-72
2021/05/12 12:52:54;;;;;;;7.83;6.70;;;22.80;58.40;;;;;;4999687;28;20438;-74
2021/05/12 12:55:26;;;;;;;7.43;6.93;;;22.70;58.50;;;;;;5015646;28;20433;-74
2021/05/12 12:57:59;;;;;;;8.30;7.70;;;22.40;58.40;;;;;;4999493;28;20440;-74
2021/05/12 13:00:30;;;;;;;7.80;7.10;;;22.10;58.90;;;;;;5015515;28;20537;-74
2021/05/12 13:03:18;;;;;;;8.67;7.40;;;21.80;61.40;;;;;;5015727;28;20472;-74
2021/05/12 13:05:58;;;;;;;9.20;8.40;;;21.50;63.20;;;;;;5015755;28;20461;-74
2021/05/12 13:08:38;;;;;;;7.77;6.90;;;21.10;65.20;;;;;;5014673;28;20464;-74
2021/05/12 13:11:04;;;;;;;8.23;7.60;;;21.00;66.70;;;;;;5031502;28;20437;-74